Bossier City, Louisiana
Current Conditions -  °F | °C
As of 3:53 PM on Friday 24 Oct 2014 (Local Time) from KDTN Reporting Station
Clear Clear  
Wind Chill: 77°   Ceiling: Unl
Heat Index: 78°   Visibility: 10mi
Dew Point: 51°   Wind: 3mph
Humidity: 40%   Direction: NA
Pressure: 30.11"   Gusts: NA
Location:  32.52°N, 93.73°W
Report Text: KDTN 242053Z AUTO VRB03KT 10SM CLR 25/11 A3011 RMK AO2 SLP194 T02500106 56017
Loading
Personal Weather Stations






























Interactive Weather Map New forecast layout! Learn more

10-Day Weather Forecast

Advertisements
Track Severe Weather on mobile